Time;durP1;ratioP1;P1;durP2;ratioP2;P2;SDS_P1;SDS_P2;PMS_P1;PMS_P2;Temp;Humidity;BMP_temperature;BMP_pressure;BME280_temperature;BME280_humidity;BME280_pressure;Samples;Min_cycle;Max_cycle;Signal;HPM_P1;HPM_P2
2023/05/30 00:01:53;;;;;;;9.60;2.80;;;12.10;99.90;;;;;;4217403;28;20500;-83
2023/05/30 00:03:53;;;;;;;5.65;2.45;;;12.10;99.90;;;;;;4216018;28;20105;-82
2023/05/30 00:05:54;;;;;;;15.10;2.20;;;12.10;99.90;;;;;;4215165;28;20052;-82
2023/05/30 00:07:56;;;;;;;12.88;2.20;;;12.10;99.90;;;;;;4215555;28;20044;-82
2023/05/30 00:09:57;;;;;;;11.25;2.10;;;12.20;99.90;;;;;;4215005;28;20040;-82
2023/05/30 00:11:58;;;;;;;9.20;2.42;;;12.10;99.90;;;;;;4213659;28;20085;-82
2023/05/30 00:13:59;;;;;;;12.75;2.20;;;12.20;99.90;;;;;;4214893;28;20670;-83
2023/05/30 00:16:01;;;;;;;12.80;2.85;;;12.20;99.90;;;;;;4216256;28;20048;-82
2023/05/30 00:18:02;;;;;;;8.10;2.15;;;12.20;99.90;;;;;;4216784;28;20483;-82
2023/05/30 00:20:03;;;;;;;8.38;2.30;;;12.20;99.90;;;;;;4214738;28;20044;-82
2023/05/30 00:22:05;;;;;;;8.30;2.50;;;12.20;99.90;;;;;;4215549;28;20056;-81
2023/05/30 00:24:06;;;;;;;9.68;2.60;;;12.10;99.90;;;;;;4214817;28;20483;-82
2023/05/30 00:26:09;;;;;;;13.95;2.30;;;12.10;99.90;;;;;;4215569;28;20040;-82
2023/05/30 00:28:10;;;;;;;8.93;2.33;;;12.00;99.90;;;;;;4213674;28;20046;-82
2023/05/30 00:30:12;;;;;;;12.07;2.53;;;12.00;99.90;;;;;;4215745;28;20126;-82
2023/05/30 00:32:14;;;;;;;9.32;2.97;;;12.00;99.90;;;;;;4215079;28;20036;-81
2023/05/30 00:34:15;;;;;;;11.48;2.15;;;12.00;99.90;;;;;;4214510;28;20046;-81
2023/05/30 00:36:16;;;;;;;7.60;1.92;;;12.00;99.90;;;;;;4198186;28;20076;-81
2023/05/30 00:38:17;;;;;;;15.70;3.38;;;11.90;99.90;;;;;;4215724;28;20048;-81
2023/05/30 00:40:17;;;;;;;6.95;2.17;;;11.90;99.90;;;;;;4216439;28;20058;-83
2023/05/30 00:42:18;;;;;;;14.02;3.10;;;11.90;99.90;;;;;;4216059;28;20080;-83
2023/05/30 00:44:19;;;;;;;7.38;1.70;;;11.90;99.90;;;;;;4216460;28;20079;-84
2023/05/30 00:46:25;;;;;;;9.68;1.60;;;11.90;99.90;;;;;;4215741;28;20049;-84
2023/05/30 00:48:26;;;;;;;10.65;3.05;;;12.00;99.90;;;;;;4197530;28;20056;-84
2023/05/30 00:50:30;;;;;;;4.75;1.80;;;11.90;99.90;;;;;;4216572;28;20087;-84
2023/05/30 00:52:31;;;;;;;10.40;1.83;;;11.90;99.90;;;;;;4197725;28;20417;-84
2023/05/30 00:54:32;;;;;;;5.18;1.92;;;12.00;99.90;;;;;;4216766;28;20097;-84
2023/05/30 00:56:33;;;;;;;13.52;2.33;;;11.90;99.90;;;;;;4215667;28;20048;-83
2023/05/30 00:58:35;;;;;;;7.47;1.83;;;11.90;99.90;;;;;;4198313;28;20048;-84
2023/05/30 01:00:39;;;;;;;6.30;1.90;;;11.90;99.90;;;;;;4215676;28;20083;-84
2023/05/30 01:02:43;;;;;;;10.10;2.28;;;11.90;99.90;;;;;;4196375;28;20056;-84
2023/05/30 01:04:44;;;;;;;7.35;3.13;;;11.90;99.90;;;;;;4182515;28;20106;-84
2023/05/30 01:06:46;;;;;;;9.25;1.80;;;11.90;99.90;;;;;;4199515;28;20060;-84
2023/05/30 01:08:47;;;;;;;14.15;2.78;;;11.90;99.90;;;;;;4200196;28;20123;-84
2023/05/30 01:10:54;;;;;;;14.15;3.78;;;11.90;99.90;;;;;;4180854;28;20052;-84
2023/05/30 01:13:19;;;;;;;5.90;1.92;;;11.90;99.90;;;;;;4199364;28;20041;-84
2023/05/30 01:15:29;;;;;;;7.93;2.20;;;11.90;99.90;;;;;;4181883;28;20041;-85
2023/05/30 01:17:38;;;;;;;12.82;2.25;;;11.90;99.90;;;;;;4182612;28;20493;-84
2023/05/30 01:20:05;;;;;;;10.20;2.40;;;11.90;99.90;;;;;;4194143;28;20264;-84
2023/05/30 01:22:20;;;;;;;9.63;2.78;;;11.90;99.90;;;;;;4203042;28;20221;-84
2023/05/30 01:24:35;;;;;;;11.88;2.67;;;11.90;99.90;;;;;;4216714;28;20055;-84
2023/05/30 01:27:09;;;;;;;8.38;2.08;;;11.80;99.90;;;;;;4216541;28;20081;-85
2023/05/30 01:29:17;;;;;;;24.70;2.78;;;11.90;99.90;;;;;;4215992;28;20540;-85
2023/05/30 01:31:18;;;;;;;13.52;2.90;;;11.90;99.90;;;;;;4215669;28;20036;-85
2023/05/30 01:33:21;;;;;;;11.93;2.13;;;11.90;99.90;;;;;;4216533;28;20040;-85
2023/05/30 01:35:24;;;;;;;16.38;3.30;;;11.90;99.90;;;;;;4195653;28;20398;-85
2023/05/30 01:37:24;;;;;;;12.60;2.95;;;11.90;99.90;;;;;;4199590;28;20041;-85
2023/05/30 01:39:25;;;;;;;8.13;2.47;;;11.90;99.90;;;;;;4181960;28;20148;-85
2023/05/30 01:41:47;;;;;;;18.55;3.38;;;11.90;99.90;;;;;;4199295;28;20040;-85
2023/05/30 01:43:51;;;;;;;13.43;2.70;;;11.90;99.90;;;;;;4184063;28;20045;-83
2023/05/30 01:46:14;;;;;;;12.45;3.70;;;11.90;99.90;;;;;;4198918;28;20045;-85
2023/05/30 01:48:32;;;;;;;10.68;3.35;;;11.90;99.90;;;;;;4198818;28;20036;-85
2023/05/30 01:50:38;;;;;;;13.85;3.95;;;11.90;99.90;;;;;;4198064;28;20550;-85
2023/05/30 01:52:43;;;;;;;14.20;2.53;;;11.90;99.90;;;;;;4199486;28;20056;-85
2023/05/30 01:54:51;;;;;;;12.05;3.17;;;11.90;99.90;;;;;;4198976;28;20111;-85
2023/05/30 01:56:54;;;;;;;8.45;2.28;;;11.80;99.90;;;;;;4198207;28;20115;-85
2023/05/30 01:58:56;;;;;;;11.82;2.30;;;11.90;99.90;;;;;;4180705;28;20081;-84
2023/05/30 02:00:59;;;;;;;8.35;3.08;;;11.90;99.90;;;;;;4197994;28;20054;-85
2023/05/30 02:03:00;;;;;;;10.93;2.50;;;11.90;99.90;;;;;;4180848;28;20128;-85
2023/05/30 02:05:00;;;;;;;10.10;2.60;;;11.90;99.90;;;;;;4198068;28;20484;-85
2023/05/30 02:07:05;;;;;;;14.95;3.30;;;11.90;99.90;;;;;;4198640;28;20492;-85
2023/05/30 02:09:06;;;;;;;10.98;2.40;;;11.90;99.90;;;;;;4181866;28;20053;-85
2023/05/30 02:11:07;;;;;;;8.20;2.72;;;11.90;99.90;;;;;;4180979;28;20068;-85
2023/05/30 02:13:08;;;;;;;14.23;2.90;;;11.90;99.90;;;;;;4199248;28;20127;-85
2023/05/30 02:15:09;;;;;;;11.77;2.40;;;11.90;99.90;;;;;;4198576;28;20045;-83
2023/05/30 02:17:09;;;;;;;13.70;3.20;;;11.90;99.90;;;;;;4181303;28;20115;-84
2023/05/30 02:19:12;;;;;;;12.82;2.72;;;11.90;99.90;;;;;;4198256;28;20044;-84
2023/05/30 02:21:13;;;;;;;10.48;2.60;;;12.00;99.90;;;;;;4199486;28;20408;-85
2023/05/30 02:23:13;;;;;;;12.45;3.17;;;12.00;99.90;;;;;;4198553;28;20052;-84
2023/05/30 02:25:15;;;;;;;10.90;2.65;;;12.00;99.90;;;;;;4198387;28;20044;-85
2023/05/30 02:27:16;;;;;;;9.25;2.72;;;11.90;99.90;;;;;;4199028;28;20049;-84
2023/05/30 02:29:16;;;;;;;7.93;2.15;;;12.00;99.90;;;;;;4198346;28;20116;-85
2023/05/30 02:31:17;;;;;;;13.43;3.67;;;12.00;99.90;;;;;;4180595;28;20049;-84
2023/05/30 02:33:18;;;;;;;7.28;2.38;;;11.90;99.90;;;;;;4198389;28;20071;-85
2023/05/30 02:35:19;;;;;;;10.88;3.22;;;11.90;99.90;;;;;;4198948;28;20181;-84
2023/05/30 02:37:19;;;;;;;10.98;2.33;;;11.90;99.90;;;;;;4180305;28;20128;-84
2023/05/30 02:39:20;;;;;;;10.93;2.47;;;11.90;99.90;;;;;;4198550;28;20045;-84
2023/05/30 02:41:22;;;;;;;6.13;1.98;;;11.90;99.90;;;;;;4198542;28;20044;-84
2023/05/30 02:43:24;;;;;;;8.73;2.33;;;11.80;99.90;;;;;;4198075;28;20045;-84
2023/05/30 02:45:25;;;;;;;10.52;2.92;;;11.80;99.90;;;;;;4198833;28;20092;-83
2023/05/30 02:47:26;;;;;;;11.02;2.42;;;11.80;99.90;;;;;;4198109;28;20055;-83
2023/05/30 02:49:27;;;;;;;9.95;3.53;;;11.80;99.90;;;;;;4198822;28;20051;-84
2023/05/30 02:51:31;;;;;;;8.45;2.55;;;11.80;99.90;;;;;;4198152;28;20045;-84
2023/05/30 02:53:33;;;;;;;11.43;2.72;;;11.90;99.90;;;;;;4164306;28;20064;-83
2023/05/30 02:55:33;;;;;;;8.82;2.15;;;11.80;99.90;;;;;;4198271;28;20492;-84
2023/05/30 02:57:34;;;;;;;12.32;2.60;;;11.80;99.90;;;;;;4197859;28;20045;-84
2023/05/30 02:59:35;;;;;;;13.35;2.60;;;11.80;99.90;;;;;;4198637;28;20052;-84
2023/05/30 03:01:36;;;;;;;11.50;2.20;;;11.70;99.90;;;;;;4198108;28;20124;-84
2023/05/30 03:03:37;;;;;;;10.77;3.60;;;11.70;99.90;;;;;;4198758;28;20036;-84
2023/05/30 03:05:38;;;;;;;10.10;2.75;;;11.70;99.90;;;;;;4197742;28;20115;-84
2023/05/30 03:07:39;;;;;;;10.57;3.20;;;11.70;99.90;;;;;;4198519;28;20911;-84
2023/05/30 03:09:40;;;;;;;17.48;3.35;;;11.80;99.90;;;;;;4180938;28;20041;-84
2023/05/30 03:11:41;;;;;;;13.48;3.53;;;11.80;99.90;;;;;;4197942;28;20064;-85
2023/05/30 03:13:42;;;;;;;12.98;3.35;;;11.80;99.90;;;;;;4198304;28;20102;-84
2023/05/30 03:15:46;;;;;;;13.95;3.00;;;11.70;99.90;;;;;;4203666;28;20094;-84
2023/05/30 03:17:47;;;;;;;12.70;3.55;;;11.80;99.90;;;;;;4198414;28;20048;-84
2023/05/30 03:19:48;;;;;;;11.95;2.33;;;11.80;99.90;;;;;;4197340;28;20158;-84
2023/05/30 03:21:52;;;;;;;6.57;2.50;;;11.80;99.90;;;;;;4198225;28;20124;-84
2023/05/30 03:23:52;;;;;;;14.80;3.20;;;11.80;99.90;;;;;;4198179;28;20040;-84
2023/05/30 03:25:53;;;;;;;19.48;2.92;;;11.80;99.90;;;;;;4180429;28;20051;-84
2023/05/30 03:27:54;;;;;;;12.90;2.50;;;11.50;99.90;;;;;;4182833;28;20129;-84
2023/05/30 03:29:56;;;;;;;10.63;2.40;;;11.80;99.90;;;;;;4182950;28;20064;-84
2023/05/30 03:31:56;;;;;;;10.15;2.55;;;11.80;99.90;;;;;;4201413;28;20456;-85
2023/05/30 03:33:57;;;;;;;12.00;2.90;;;11.80;99.90;;;;;;4182902;28;20053;-84
2023/05/30 03:35:58;;;;;;;10.15;2.90;;;11.50;99.90;;;;;;4183316;28;20083;-84
2023/05/30 03:37:59;;;;;;;11.73;2.85;;;11.80;99.90;;;;;;4200548;28;20055;-84
2023/05/30 03:39:59;;;;;;;8.73;2.60;;;11.80;99.90;;;;;;4200495;28;20041;-85
2023/05/30 03:42:01;;;;;;;11.63;2.25;;;11.80;99.90;;;;;;4182000;28;20049;-84
2023/05/30 03:44:02;;;;;;;14.85;3.30;;;11.80;99.90;;;;;;4200204;28;20076;-85
2023/05/30 03:46:03;;;;;;;12.93;3.05;;;11.30;99.90;;;;;;4200440;28;20055;-85
2023/05/30 03:48:04;;;;;;;12.95;3.30;;;11.80;99.90;;;;;;4182259;28;20112;-85
2023/05/30 03:50:05;;;;;;;9.98;2.75;;;11.80;99.90;;;;;;4200541;28;20370;-85
2023/05/30 03:52:06;;;;;;;14.05;3.30;;;11.80;99.90;;;;;;4200123;28;20040;-85
2023/05/30 03:54:07;;;;;;;18.65;3.53;;;11.80;99.90;;;;;;4200729;28;20041;-84
2023/05/30 03:56:08;;;;;;;8.88;2.72;;;11.80;99.90;;;;;;4199920;28;20079;-83
2023/05/30 03:58:09;;;;;;;7.70;2.60;;;11.90;99.90;;;;;;4200284;28;20527;-85
2023/05/30 04:00:12;;;;;;;13.27;3.78;;;11.80;99.90;;;;;;4182736;28;20037;-84
2023/05/30 04:02:13;;;;;;;9.93;2.30;;;11.90;99.90;;;;;;4199732;28;20051;-84
2023/05/30 04:04:13;;;;;;;14.65;3.03;;;11.80;99.90;;;;;;4190004;28;20080;-84
2023/05/30 04:06:15;;;;;;;10.77;3.22;;;11.90;99.90;;;;;;4216293;28;20488;-84
2023/05/30 04:08:15;;;;;;;10.63;2.80;;;11.90;99.90;;;;;;4216836;28;20068;-84
2023/05/30 04:10:16;;;;;;;10.43;2.35;;;11.90;99.90;;;;;;4216265;28;20048;-84
2023/05/30 04:12:17;;;;;;;6.10;2.97;;;11.90;99.90;;;;;;4217079;28;20054;-84
2023/05/30 04:14:18;;;;;;;15.32;3.38;;;11.90;99.90;;;;;;4216864;28;20040;-84
2023/05/30 04:16:18;;;;;;;7.50;2.65;;;11.90;99.90;;;;;;4198423;28;20431;-84
2023/05/30 04:18:20;;;;;;;13.20;2.65;;;11.90;99.90;;;;;;4216298;28;20036;-83
2023/05/30 04:20:20;;;;;;;12.80;2.92;;;12.00;99.90;;;;;;4187855;28;20094;-85
2023/05/30 04:22:21;;;;;;;9.43;2.47;;;12.00;99.90;;;;;;4199701;28;20053;-85
2023/05/30 04:24:22;;;;;;;9.40;2.05;;;12.00;99.90;;;;;;4199699;28;20052;-85
2023/05/30 04:26:25;;;;;;;7.95;2.42;;;12.00;99.90;;;;;;4182037;28;20524;-85
2023/05/30 04:28:27;;;;;;;9.60;2.25;;;11.90;99.90;;;;;;4199475;28;20053;-85
2023/05/30 04:30:28;;;;;;;18.70;2.95;;;12.00;99.90;;;;;;4199228;28;20048;-85
2023/05/30 04:32:33;;;;;;;10.90;2.70;;;12.00;99.90;;;;;;4198747;28;20102;-84
2023/05/30 04:34:34;;;;;;;7.65;2.20;;;12.00;99.90;;;;;;4199425;28;20040;-85
2023/05/30 04:36:36;;;;;;;8.95;2.25;;;11.90;99.90;;;;;;4199529;28;20045;-84
2023/05/30 04:38:37;;;;;;;15.20;3.28;;;11.90;99.90;;;;;;4180743;28;20103;-84
2023/05/30 04:40:38;;;;;;;11.18;2.78;;;12.00;99.90;;;;;;4198199;28;20542;-83
2023/05/30 04:42:42;;;;;;;10.55;2.13;;;12.00;99.90;;;;;;4198789;28;20052;-83
2023/05/30 04:44:43;;;;;;;11.70;3.05;;;12.00;99.90;;;;;;4199230;28;20445;-83
2023/05/30 04:46:46;;;;;;;8.38;2.25;;;11.90;99.90;;;;;;4199256;28;20106;-83
2023/05/30 04:48:55;;;;;;;8.52;2.20;;;12.00;99.90;;;;;;4183271;28;20049;-84
2023/05/30 04:50:58;;;;;;;;;;;12.00;99.90;;;;;;4199228;28;20044;-84
2023/05/30 04:52:58;;;;;;;9.80;3.15;;;12.00;99.90;;;;;;4181908;28;19924;-83
2023/05/30 04:54:59;;;;;;;13.63;4.03;;;12.00;99.90;;;;;;4199107;28;20087;-84
2023/05/30 04:57:02;;;;;;;14.88;2.63;;;12.00;99.90;;;;;;4199369;28;20049;-84
2023/05/30 04:59:03;;;;;;;6.05;1.88;;;12.00;99.90;;;;;;4199707;28;20079;-84
2023/05/30 05:01:03;;;;;;;6.57;2.08;;;12.00;99.90;;;;;;4206863;28;20040;-84
2023/05/30 05:03:06;;;;;;;5.28;2.00;;;12.00;99.90;;;;;;4197542;28;20529;-84
2023/05/30 05:05:08;;;;;;;5.22;1.60;;;12.00;99.90;;;;;;4216037;28;20508;-84
2023/05/30 05:07:08;;;;;;;4.93;1.70;;;12.00;99.90;;;;;;4215910;28;20125;-83
2023/05/30 05:09:10;;;;;;;8.15;1.67;;;12.00;99.90;;;;;;4197379;28;20036;-84
2023/05/30 05:11:11;;;;;;;7.88;1.85;;;12.00;99.90;;;;;;4215849;28;20040;-84
2023/05/30 05:13:12;;;;;;;7.43;2.03;;;12.00;99.90;;;;;;4215194;28;20040;-84
2023/05/30 05:15:13;;;;;;;12.25;2.00;;;12.00;99.90;;;;;;4215679;28;20077;-83
2023/05/30 05:17:14;;;;;;;12.82;2.42;;;12.00;99.90;;;;;;4215236;28;20419;-84
2023/05/30 05:19:14;;;;;;;8.77;2.28;;;12.10;99.90;;;;;;4204124;28;20047;-84
2023/05/30 05:21:15;;;;;;;9.88;2.25;;;12.10;99.90;;;;;;4198328;28;20044;-84
2023/05/30 05:23:16;;;;;;;12.98;2.75;;;12.00;99.90;;;;;;4180494;28;20049;-84
2023/05/30 05:25:17;;;;;;;9.85;2.28;;;12.10;99.90;;;;;;4180709;28;20048;-83
2023/05/30 05:27:18;;;;;;;7.45;2.30;;;12.10;99.90;;;;;;4197953;28;20408;-84
2023/05/30 05:29:19;;;;;;;5.70;1.92;;;12.00;99.90;;;;;;4198736;28;20400;-83
2023/05/30 05:31:19;;;;;;;7.63;2.22;;;12.10;99.90;;;;;;4180439;28;20079;-84
2023/05/30 05:33:20;;;;;;;11.75;3.97;;;12.10;99.90;;;;;;4198406;28;20400;-84
2023/05/30 05:35:21;;;;;;;9.30;2.53;;;12.10;99.90;;;;;;4198017;28;20452;-84
2023/05/30 05:37:22;;;;;;;8.20;1.90;;;12.10;99.90;;;;;;4180797;28;20088;-83
2023/05/30 05:39:22;;;;;;;11.13;2.28;;;12.10;99.90;;;;;;4198526;28;20045;-83
2023/05/30 05:41:23;;;;;;;11.68;2.17;;;12.10;99.90;;;;;;4197853;28;20503;-84
2023/05/30 05:43:24;;;;;;;9.77;2.08;;;12.10;99.90;;;;;;4197703;28;20044;-83
2023/05/30 05:45:25;;;;;;;7.15;2.20;;;12.10;99.90;;;;;;4197809;28;20055;-84
2023/05/30 05:47:25;;;;;;;10.27;3.10;;;12.10;99.90;;;;;;4196576;28;20044;-84
2023/05/30 05:49:26;;;;;;;6.63;2.10;;;12.20;99.90;;;;;;4197071;28;20040;-84
2023/05/30 05:51:27;;;;;;;10.48;2.78;;;12.20;99.90;;;;;;4198066;28;20090;-84
2023/05/30 05:53:28;;;;;;;7.72;2.08;;;12.20;99.90;;;;;;4162145;28;20049;-83
2023/05/30 05:55:30;;;;;;;8.40;1.77;;;12.20;99.90;;;;;;4197172;28;20050;-84
2023/05/30 05:57:30;;;;;;;12.80;2.08;;;12.20;99.90;;;;;;4180413;28;20131;-83
2023/05/30 05:59:31;;;;;;;4.88;1.45;;;12.20;99.90;;;;;;4197474;28;20048;-84
2023/05/30 06:01:32;;;;;;;8.18;1.55;;;12.20;99.90;;;;;;4197951;28;20048;-84
2023/05/30 06:03:32;;;;;;;12.10;1.98;;;12.20;99.90;;;;;;4197187;28;20162;-83
2023/05/30 06:05:33;;;;;;;8.93;2.53;;;12.30;99.90;;;;;;4197189;28;20040;-84
2023/05/30 06:07:34;;;;;;;6.88;2.03;;;12.30;99.90;;;;;;4196526;28;20492;-83
2023/05/30 06:09:36;;;;;;;7.97;1.83;;;12.30;99.90;;;;;;4197573;28;20488;-84
2023/05/30 06:11:36;;;;;;;7.15;2.60;;;12.30;99.90;;;;;;4197298;28;20044;-83
2023/05/30 06:13:37;;;;;;;4.90;1.70;;;12.30;99.90;;;;;;4197699;28;20480;-84
2023/05/30 06:15:38;;;;;;;6.13;1.42;;;12.30;99.90;;;;;;4197224;28;20059;-84
2023/05/30 06:17:38;;;;;;;8.13;2.00;;;12.30;99.90;;;;;;4197772;28;20075;-84
2023/05/30 06:19:39;;;;;;;4.10;1.42;;;12.30;99.90;;;;;;4197350;28;20408;-84
2023/05/30 06:21:40;;;;;;;4.90;2.05;;;12.40;99.90;;;;;;4197351;28;20447;-84
2023/05/30 06:23:42;;;;;;;8.75;2.10;;;12.40;99.90;;;;;;4197327;28;20388;-85
2023/05/30 06:25:42;;;;;;;9.25;1.50;;;12.40;99.90;;;;;;4198430;28;20036;-84
2023/05/30 06:27:43;;;;;;;8.93;2.15;;;12.40;99.90;;;;;;4198495;28;20132;-84
2023/05/30 06:29:44;;;;;;;4.85;1.38;;;12.50;99.90;;;;;;4199066;28;20399;-83
2023/05/30 06:31:45;;;;;;;4.35;1.42;;;12.50;99.90;;;;;;4198201;28;20431;-83
2023/05/30 06:33:46;;;;;;;8.25;1.90;;;12.50;99.90;;;;;;4198365;28;20041;-83
2023/05/30 06:35:47;;;;;;;8.65;1.55;;;12.50;99.90;;;;;;4198315;28;20451;-83
2023/05/30 06:37:48;;;;;;;4.95;1.58;;;12.50;99.90;;;;;;4180636;28;20045;-83
2023/05/30 06:39:48;;;;;;;13.45;1.80;;;12.50;99.90;;;;;;4197945;28;20040;-83
2023/05/30 06:41:49;;;;;;;12.45;1.80;;;12.50;99.90;;;;;;4180784;28;20049;-83
2023/05/30 06:43:50;;;;;;;7.20;1.80;;;12.60;99.90;;;;;;4198618;28;20059;-84
2023/05/30 06:45:52;;;;;;;5.95;2.17;;;12.50;99.90;;;;;;4203213;28;20051;-83
2023/05/30 06:47:53;;;;;;;15.25;2.80;;;12.60;99.90;;;;;;4215161;28;20043;-82
2023/05/30 06:49:53;;;;;;;8.40;1.50;;;12.60;99.90;;;;;;4214310;28;20075;-83
2023/05/30 06:51:54;;;;;;;8.63;1.60;;;12.70;99.90;;;;;;4214988;28;20510;-82
2023/05/30 06:53:55;;;;;;;6.88;1.50;;;12.70;99.90;;;;;;4214609;28;20047;-84
2023/05/30 06:55:56;;;;;;;7.82;2.05;;;12.60;99.90;;;;;;4215364;28;20403;-83
2023/05/30 06:57:56;;;;;;;6.18;2.03;;;12.70;99.90;;;;;;4214323;28;20093;-83
2023/05/30 06:59:57;;;;;;;11.02;2.60;;;12.70;99.90;;;;;;4215998;28;20183;-83
2023/05/30 07:01:59;;;;;;;6.72;1.60;;;12.70;99.90;;;;;;4183352;28;20057;-83
2023/05/30 07:04:00;;;;;;;4.63;1.45;;;12.40;99.90;;;;;;4167990;28;20052;-83
2023/05/30 07:06:02;;;;;;;6.18;2.05;;;12.80;99.90;;;;;;4201673;28;20044;-83
2023/05/30 07:08:03;;;;;;;8.77;2.67;;;12.80;99.90;;;;;;4201080;28;20430;-83
2023/05/30 07:10:05;;;;;;;8.98;2.28;;;12.70;99.90;;;;;;4201332;28;20040;-83
2023/05/30 07:12:06;;;;;;;7.35;2.33;;;12.70;99.90;;;;;;4200989;28;20044;-83
2023/05/30 07:14:07;;;;;;;10.95;1.95;;;12.70;99.90;;;;;;4201943;28;20392;-83
2023/05/30 07:16:10;;;;;;;4.40;1.88;;;12.80;99.90;;;;;;4183033;28;20099;-83
2023/05/30 07:18:10;;;;;;;5.20;1.45;;;12.70;99.90;;;;;;4201442;28;20044;-83
2023/05/30 07:20:12;;;;;;;6.28;1.38;;;12.80;99.90;;;;;;4201707;28;20044;-83
2023/05/30 07:22:12;;;;;;;6.93;1.60;;;12.80;99.90;;;;;;4200965;28;20501;-83
2023/05/30 07:24:13;;;;;;;3.10;1.20;;;12.80;99.90;;;;;;4201044;28;20048;-83
2023/05/30 07:26:14;;;;;;;9.27;1.50;;;12.80;99.90;;;;;;4201226;28;20476;-83
2023/05/30 07:28:15;;;;;;;5.28;1.40;;;12.90;99.90;;;;;;4201314;28;20036;-83
2023/05/30 07:30:16;;;;;;;2.28;1.42;;;12.90;99.90;;;;;;4184085;28;20131;-84
2023/05/30 07:32:18;;;;;;;5.57;1.52;;;12.90;99.90;;;;;;4202311;28;20391;-83
2023/05/30 07:34:19;;;;;;;2.97;1.10;;;13.00;99.90;;;;;;4184379;28;20080;-83
2023/05/30 07:36:20;;;;;;;4.32;1.02;;;13.00;99.90;;;;;;4201595;28;20052;-83
2023/05/30 07:38:20;;;;;;;3.05;0.93;;;13.00;99.90;;;;;;4200873;28;20567;-83
2023/05/30 07:40:22;;;;;;;1.40;0.68;;;13.00;99.90;;;;;;4200978;28;20079;-83
2023/05/30 07:42:23;;;;;;;3.25;1.00;;;13.00;99.90;;;;;;4201957;28;20040;-83
2023/05/30 07:44:24;;;;;;;4.78;1.08;;;13.00;99.90;;;;;;4201035;28;20037;-83
2023/05/30 07:46:25;;;;;;;3.10;1.27;;;13.00;99.90;;;;;;4201919;28;20136;-83
2023/05/30 07:48:25;;;;;;;5.18;0.85;;;13.10;99.90;;;;;;4200345;28;20040;-83
2023/05/30 07:50:26;;;;;;;2.40;0.77;;;13.20;99.90;;;;;;4201508;28;20120;-82
2023/05/30 07:52:27;;;;;;;3.75;0.88;;;13.30;99.90;;;;;;4202982;28;20638;-83
2023/05/30 07:54:28;;;;;;;4.35;1.05;;;13.40;99.90;;;;;;4200436;28;20576;-84
2023/05/30 07:56:28;;;;;;;3.97;0.93;;;13.50;99.90;;;;;;4200860;28;20048;-83
2023/05/30 07:58:29;;;;;;;1.95;0.77;;;13.50;99.90;;;;;;4182690;28;20048;-83
2023/05/30 08:00:30;;;;;;;3.58;1.02;;;13.60;99.90;;;;;;4201481;28;20396;-83
2023/05/30 08:02:31;;;;;;;3.65;1.13;;;13.60;99.90;;;;;;4182831;28;20048;-83
2023/05/30 08:04:31;;;;;;;5.97;2.05;;;13.60;99.90;;;;;;4201221;28;20564;-83
2023/05/30 08:06:34;;;;;;;3.83;1.00;;;13.60;99.90;;;;;;4200753;28;20511;-83
2023/05/30 08:08:35;;;;;;;4.45;1.10;;;13.60;99.90;;;;;;4200797;28;20040;-83
2023/05/30 08:10:36;;;;;;;2.75;1.00;;;13.70;99.90;;;;;;4201257;28;20097;-82
2023/05/30 08:12:38;;;;;;;1.63;0.85;;;13.70;99.90;;;;;;4199916;28;20048;-82
2023/05/30 08:14:38;;;;;;;4.10;1.00;;;13.70;99.90;;;;;;4201579;28;20052;-82
2023/05/30 08:16:39;;;;;;;6.55;1.13;;;13.70;99.90;;;;;;4200268;28;20519;-83
2023/05/30 08:18:41;;;;;;;4.45;1.35;;;13.80;99.90;;;;;;4200934;28;20127;-82
2023/05/30 08:20:42;;;;;;;3.15;1.17;;;13.90;99.90;;;;;;4200036;28;20094;-83
2023/05/30 08:22:43;;;;;;;3.33;1.20;;;14.00;99.90;;;;;;4200170;28;20061;-82
2023/05/30 08:24:44;;;;;;;2.10;0.88;;;14.00;99.90;;;;;;4200590;28;20426;-83
2023/05/30 08:26:47;;;;;;;2.33;0.60;;;14.10;99.90;;;;;;4200477;28;20113;-83
2023/05/30 08:28:48;;;;;;;2.88;0.70;;;14.20;99.90;;;;;;4201109;28;20059;-83
2023/05/30 08:30:49;;;;;;;3.55;1.13;;;14.30;99.90;;;;;;4200627;28;20045;-83
2023/05/30 08:32:50;;;;;;;3.50;0.70;;;14.40;99.90;;;;;;4201015;28;20044;-83
2023/05/30 08:34:51;;;;;;;3.75;1.77;;;14.60;99.90;;;;;;4200254;28;20128;-84
2023/05/30 08:36:55;;;;;;;0.63;0.50;;;14.80;99.90;;;;;;4200403;28;20049;-83
2023/05/30 08:38:56;;;;;;;2.53;0.68;;;15.00;99.90;;;;;;4181783;28;20044;-84
2023/05/30 08:40:57;;;;;;;1.60;0.50;;;15.10;99.90;;;;;;4199406;28;20260;-85
2023/05/30 08:42:57;;;;;;;1.55;0.60;;;15.10;99.90;;;;;;4203441;28;20636;-86
2023/05/30 08:44:58;;;;;;;4.50;0.68;;;15.20;99.90;;;;;;4196531;28;20127;-85
2023/05/30 08:47:02;;;;;;;2.35;0.50;;;15.20;99.90;;;;;;4212510;28;20040;-85
2023/05/30 08:49:03;;;;;;;3.20;0.63;;;15.20;99.90;;;;;;4194100;28;20051;-85
2023/05/30 08:51:05;;;;;;;1.95;0.70;;;15.20;99.90;;;;;;4213415;28;20715;-85
2023/05/30 08:53:13;;;;;;;0.95;0.30;;;15.20;99.90;;;;;;4216266;28;20395;-86
2023/05/30 08:55:16;;;;;;;1.88;0.50;;;15.30;99.90;;;;;;4198277;28;20059;-85
2023/05/30 08:57:24;;;;;;;1.80;0.40;;;15.40;99.90;;;;;;4199085;28;20048;-85
2023/05/30 08:59:26;;;;;;;0.82;0.40;;;15.40;99.90;;;;;;4197939;28;20057;-85
2023/05/30 09:01:28;;;;;;;1.58;0.38;;;15.40;99.90;;;;;;4198835;28;20385;-86
2023/05/30 09:03:34;;;;;;;2.00;0.57;;;15.40;99.90;;;;;;4182045;28;20041;-85
2023/05/30 09:05:35;;;;;;;1.60;0.50;;;15.40;99.90;;;;;;4198089;28;20048;-85
2023/05/30 09:07:38;;;;;;;1.30;0.38;;;15.40;99.90;;;;;;4198378;28;20064;-86
2023/05/30 09:09:41;;;;;;;1.02;0.30;;;15.50;99.90;;;;;;4215948;28;20093;-85
2023/05/30 09:11:43;;;;;;;0.52;0.40;;;15.50;99.90;;;;;;4199165;28;20090;-85
2023/05/30 09:13:44;;;;;;;0.60;0.38;;;15.40;99.90;;;;;;4198219;28;20059;-85
2023/05/30 09:15:45;;;;;;;3.38;0.40;;;15.40;99.90;;;;;;4181858;28;20520;-85
2023/05/30 09:17:46;;;;;;;4.07;0.40;;;15.30;99.90;;;;;;4197571;28;20474;-82
2023/05/30 09:19:48;;;;;;;1.58;0.30;;;15.30;99.90;;;;;;4215326;28;20052;-83
2023/05/30 09:21:49;;;;;;;1.65;0.43;;;15.30;99.90;;;;;;4215989;28;20039;-83
2023/05/30 09:23:50;;;;;;;0.35;0.30;;;15.30;99.90;;;;;;4215187;28;20075;-83
2023/05/30 09:25:51;;;;;;;1.42;0.50;;;15.20;99.90;;;;;;4182190;28;20086;-83
2023/05/30 09:27:54;;;;;;;0.68;0.40;;;15.40;99.90;;;;;;4215698;28;20123;-83
2023/05/30 09:29:56;;;;;;;0.50;0.50;;;15.40;99.90;;;;;;4215679;28;20056;-83
2023/05/30 09:31:57;;;;;;;1.08;0.35;;;15.40;99.90;;;;;;4198618;28;20048;-83
2023/05/30 09:33:58;;;;;;;2.33;0.50;;;15.20;99.90;;;;;;4198093;28;20051;-83
2023/05/30 09:35:59;;;;;;;6.05;0.40;;;15.00;99.90;;;;;;4214353;28;20041;-83
2023/05/30 09:38:04;;;;;;;1.92;0.30;;;14.90;99.90;;;;;;4213761;28;20044;-84
2023/05/30 09:40:15;;;;;;;1.13;0.43;;;14.90;99.90;;;;;;4217049;28;20089;-84
2023/05/30 09:42:16;;;;;;;1.45;0.50;;;15.00;99.90;;;;;;4199003;28;20049;-83
2023/05/30 09:44:18;;;;;;;3.50;0.82;;;15.10;99.90;;;;;;4216231;28;20043;-84
2023/05/30 09:46:24;;;;;;;2.38;1.15;;;15.10;99.90;;;;;;4198405;28;20047;-84
2023/05/30 09:48:25;;;;;;;2.05;0.40;;;15.20;99.90;;;;;;4214816;28;20036;-84
2023/05/30 09:50:26;;;;;;;2.40;0.43;;;15.20;99.90;;;;;;4215780;28;20052;-83
2023/05/30 09:52:29;;;;;;;0.73;0.38;;;15.30;99.90;;;;;;4215539;28;20048;-83
2023/05/30 09:54:30;;;;;;;1.10;0.50;;;15.40;99.90;;;;;;4216120;28;20052;-83
2023/05/30 09:56:37;;;;;;;0.98;0.40;;;15.60;99.90;;;;;;4198032;28;20426;-83
2023/05/30 09:58:38;;;;;;;1.25;0.40;;;15.80;99.90;;;;;;4215161;28;20131;-84
2023/05/30 10:00:50;;;;;;;1.83;0.40;;;16.10;99.90;;;;;;4197472;28;20057;-83
2023/05/30 10:02:54;;;;;;;1.73;0.60;;;16.40;99.90;;;;;;4214795;28;20040;-84
2023/05/30 10:04:54;;;;;;;2.67;0.45;;;16.40;99.90;;;;;;4197236;28;20476;-83
2023/05/30 10:06:56;;;;;;;1.90;0.70;;;16.30;99.90;;;;;;4181490;28;20083;-83
2023/05/30 10:08:57;;;;;;;0.28;0.20;;;16.20;99.90;;;;;;4215786;28;20040;-83
2023/05/30 10:10:57;;;;;;;2.97;0.93;;;16.00;99.90;;;;;;4215753;28;20552;-84
2023/05/30 10:13:00;;;;;;;0.38;0.38;;;15.80;99.90;;;;;;4197393;28;20044;-83
2023/05/30 10:15:01;;;;;;;1.55;0.28;;;15.70;99.90;;;;;;4181422;28;20092;-83
2023/05/30 10:17:05;;;;;;;0.40;0.30;;;15.70;99.90;;;;;;4197110;28;20048;-83
2023/05/30 10:19:32;;;;;;;1.48;0.40;;;15.70;99.90;;;;;;4215637;28;20040;-83
2023/05/30 10:21:37;;;;;;;1.48;0.30;;;15.80;99.90;;;;;;4184279;28;20048;-84
2023/05/30 10:23:40;;;;;;;0.20;0.20;;;15.80;99.90;;;;;;4214921;28;20102;-84
2023/05/30 10:25:50;;;;;;;1.67;0.80;;;15.90;99.90;;;;;;4216216;28;20040;-84
2023/05/30 10:27:52;;;;;;;1.20;0.50;;;15.90;99.90;;;;;;4215750;28;20040;-84
2023/05/30 10:30:07;;;;;;;0.40;0.40;;;16.00;99.90;;;;;;4214525;28;20499;-84
2023/05/30 10:32:13;;;;;;;1.73;0.60;;;16.10;99.90;;;;;;4197101;28;20083;-84
2023/05/30 10:34:16;;;;;;;0.82;0.43;;;16.10;99.90;;;;;;4215453;28;20087;-84